Time;durP1;ratioP1;P1;durP2;ratioP2;P2;SDS_P1;SDS_P2;PMS_P1;PMS_P2;Temp;Humidity;BMP_temperature;BMP_pressure;BME280_temperature;BME280_humidity;BME280_pressure;Samples;Min_cycle;Max_cycle;Signal;HPM_P1;HPM_P2
2023/05/31 00:00:48;;;;;;;6.78;2.45;;;7.60;99.90;;;6.29;82.28;102268.09;4956478;28;20027;-76
2023/05/31 00:03:14;;;;;;;6.43;2.30;;;7.60;99.90;;;6.24;81.40;102266.34;4968060;28;20114;-78
2023/05/31 00:05:40;;;;;;;7.00;2.50;;;7.50;99.90;;;6.19;81.29;102266.38;4966877;28;20035;-76
2023/05/31 00:08:06;;;;;;;5.45;2.50;;;7.50;99.90;;;6.13;80.72;102271.63;4955733;28;20035;-75
2023/05/31 00:10:32;;;;;;;6.50;2.22;;;7.40;99.90;;;6.06;80.56;102269.91;4962193;28;20031;-76
2023/05/31 00:12:58;;;;;;;5.25;2.08;;;7.40;99.90;;;6.00;80.09;102275.16;4944287;28;20265;-74
2023/05/31 00:15:24;;;;;;;5.10;1.90;;;7.30;99.90;;;5.89;79.74;102273.41;4952628;28;20496;-74
2023/05/31 00:17:50;;;;;;;9.25;2.60;;;7.20;99.90;;;5.81;79.87;102275.19;4963414;28;20463;-75
2023/05/31 00:20:15;;;;;;;15.32;3.08;;;7.10;99.90;;;5.76;79.95;102263.84;4959739;28;20118;-74
2023/05/31 00:22:41;;;;;;;10.73;2.67;;;7.10;99.90;;;5.73;80.85;102272.56;4952250;28;20053;-76
2023/05/31 00:25:07;;;;;;;8.63;2.75;;;7.00;99.90;;;5.73;81.69;102277.78;4963896;28;21002;-76
2023/05/31 00:27:33;;;;;;;11.95;3.17;;;7.00;99.90;;;5.70;84.04;102272.59;4964491;28;20046;-75
2023/05/31 00:29:59;;;;;;;12.35;3.17;;;7.00;99.90;;;5.73;85.48;102272.56;4947769;28;20094;-75
2023/05/31 00:32:25;;;;;;;12.90;2.92;;;7.10;99.90;;;5.84;87.76;102280.38;4959968;28;20698;-75
2023/05/31 00:34:51;;;;;;;13.38;3.60;;;7.10;99.90;;;5.93;87.71;102280.34;4944716;28;20447;-76
2023/05/31 00:37:17;;;;;;;9.32;2.80;;;7.20;99.90;;;5.98;87.55;102275.16;4964607;28;20045;-75
2023/05/31 00:39:43;;;;;;;12.23;3.28;;;7.20;99.90;;;6.01;87.47;102280.38;4961312;28;20034;-75
2023/05/31 00:42:09;;;;;;;6.95;3.10;;;7.30;99.90;;;6.04;87.23;102279.50;4960673;28;20066;-76
2023/05/31 00:44:36;;;;;;;7.90;2.55;;;7.30;99.90;;;6.04;87.13;102277.75;4971189;28;20027;-75
2023/05/31 00:47:02;;;;;;;8.73;2.60;;;7.30;99.90;;;5.98;87.16;102277.75;4952227;28;20030;-76
2023/05/31 00:49:28;;;;;;;8.68;2.22;;;7.30;99.90;;;5.93;86.13;102289.97;4956915;28;20050;-76
2023/05/31 00:51:55;;;;;;;5.43;2.60;;;7.10;99.90;;;5.69;84.01;102280.41;4946216;28;20034;-75
2023/05/31 00:54:22;;;;;;;13.10;3.00;;;7.00;99.90;;;5.43;82.75;102278.69;4959991;28;20023;-75
2023/05/31 00:56:48;;;;;;;10.38;3.10;;;6.70;99.90;;;5.22;82.33;102268.25;4954476;28;20038;-76
2023/05/31 00:59:15;;;;;;;11.52;2.47;;;6.70;99.90;;;5.07;82.48;102275.19;4947479;28;20049;-75
2023/05/31 01:01:41;;;;;;;6.47;2.42;;;6.50;99.90;;;4.95;82.82;102280.41;4963334;28;20027;-76
2023/05/31 01:04:08;;;;;;;5.32;3.17;;;6.40;99.90;;;4.80;82.86;102272.56;4962305;28;20034;-75
2023/05/31 01:06:35;;;;;;;4.22;1.85;;;6.20;99.90;;;4.72;82.80;102267.31;4965209;28;20062;-75
2023/05/31 01:09:05;;;;;;;6.05;2.50;;;6.10;99.90;;;4.61;82.37;102259.47;4959592;28;20035;-75
2023/05/31 01:12:06;;;;;;;7.15;2.60;;;6.00;99.90;;;4.57;82.59;102262.94;4960412;28;20050;-75
2023/05/31 01:14:53;;;;;;;9.75;2.70;;;5.90;99.90;;;4.47;82.66;102256.81;4962722;28;20134;-75
2023/05/31 01:17:30;;;;;;;;;;;5.90;99.90;;;4.39;82.58;102263.75;4954656;28;20109;-75
2023/05/31 01:20:00;;;;;;;6.63;2.50;;;5.70;99.90;;;4.32;82.51;102257.63;4944313;28;19917;-74
2023/05/31 01:23:26;;;;;;;4.68;2.15;;;5.70;99.90;;;4.31;81.80;102261.09;4942839;28;20578;-76
2023/05/31 01:26:49;;;;;;;6.90;2.53;;;5.70;99.90;;;4.28;82.35;102262.84;4933397;28;20042;-76
2023/05/31 01:29:21;;;;;;;6.88;2.60;;;5.60;99.90;;;4.22;82.53;102270.63;4931401;28;20030;-75
2023/05/31 01:31:48;;;;;;;7.38;2.90;;;5.50;99.90;;;4.08;83.35;102253.19;4958556;28;20110;-75
2023/05/31 01:34:14;;;;;;;4.32;1.80;;;5.50;99.90;;;4.06;83.19;102269.66;4940235;28;20432;-76
2023/05/31 01:36:40;;;;;;;6.70;2.78;;;5.50;99.90;;;4.04;83.00;102260.97;4960577;28;20027;-75
2023/05/31 01:39:07;;;;;;;4.95;2.45;;;5.50;99.90;;;4.05;82.62;102262.72;4938425;28;20030;-78
2023/05/31 01:41:39;;;;;;;7.68;3.08;;;5.50;99.90;;;4.07;82.72;102258.41;4944185;28;20023;-76
2023/05/31 01:44:07;;;;;;;6.95;2.50;;;5.50;99.90;;;4.07;83.33;102255.78;4975651;28;20062;-76
2023/05/31 01:46:35;;;;;;;9.50;3.17;;;5.40;99.90;;;4.08;83.79;102260.13;4975434;28;20042;-75
2023/05/31 01:49:02;;;;;;;7.90;2.08;;;5.50;99.90;;;4.09;83.92;102256.66;4952588;28;20046;-75
2023/05/31 01:51:33;;;;;;;10.90;2.65;;;5.50;99.90;;;4.08;83.99;102260.13;4942743;28;20027;-76
2023/05/31 01:54:00;;;;;;;4.65;2.40;;;5.40;99.90;;;4.03;83.77;102247.06;4944388;28;20110;-75
2023/05/31 01:56:28;;;;;;;7.22;1.70;;;5.40;99.90;;;3.99;83.37;102247.06;4941156;28;20050;-75
2023/05/31 01:58:55;;;;;;;4.95;1.83;;;4.40;99.90;;;3.94;83.06;102244.44;4961779;28;20530;-76
2023/05/31 02:01:22;;;;;;;7.32;2.47;;;5.30;99.90;;;3.88;82.97;102247.84;4946410;28;20895;-76
2023/05/31 02:03:51;;;;;;;9.70;2.10;;;5.30;99.90;;;3.84;82.82;102248.69;4957121;28;20093;-76
2023/05/31 02:06:20;;;;;;;5.05;1.92;;;5.20;99.90;;;3.79;82.56;102245.22;4943746;28;20041;-76
2023/05/31 02:08:46;;;;;;;10.43;2.65;;;5.20;99.90;;;3.74;82.51;102244.31;4943351;28;20031;-76
2023/05/31 02:11:12;;;;;;;5.90;2.50;;;5.10;99.90;;;3.78;84.12;102242.59;4942799;28;20054;-77
2023/05/31 02:13:38;;;;;;;8.27;2.88;;;5.20;99.90;;;3.82;85.89;102244.34;4976691;28;20155;-76
2023/05/31 02:16:05;;;;;;;11.48;2.70;;;5.20;99.90;;;3.88;86.51;102247.84;4961543;28;20528;-76
2023/05/31 02:18:32;;;;;;;9.15;2.33;;;5.30;99.90;;;3.95;87.29;102250.50;4959401;28;20460;-77
2023/05/31 02:20:58;;;;;;;6.72;2.10;;;5.30;99.90;;;3.99;87.42;102250.53;4949900;28;20451;-76
2023/05/31 02:23:24;;;;;;;4.63;2.05;;;5.30;99.90;;;3.98;86.88;102250.53;4961552;28;20042;-75
2023/05/31 02:25:51;;;;;;;3.90;1.92;;;5.30;99.90;;;3.87;85.72;102251.34;4975995;28;20034;-77
2023/05/31 02:28:17;;;;;;;6.30;2.15;;;5.20;99.90;;;3.68;84.47;102258.16;4976395;28;20030;-76
2023/05/31 02:31:00;;;;;;;4.72;1.98;;;5.10;99.90;;;3.52;83.09;102245.03;4966636;28;20035;-76
2023/05/31 02:33:27;;;;;;;4.93;1.92;;;4.90;99.90;;;3.35;82.67;102248.41;4949442;28;20039;-76
2023/05/31 02:35:53;;;;;;;13.75;2.70;;;4.80;99.90;;;3.26;82.46;102245.69;4960963;28;20188;-77
2023/05/31 02:38:20;;;;;;;3.38;1.80;;;4.70;99.90;;;3.18;82.46;102250.88;4961315;28;20506;-76
2023/05/31 02:40:46;;;;;;;6.15;2.03;;;4.60;99.90;;;3.13;82.30;102244.72;4959841;28;20414;-77
2023/05/31 02:43:12;;;;;;;3.85;1.60;;;4.60;99.90;;;3.06;81.96;102237.72;4958207;28;20039;-77
2023/05/31 02:45:38;;;;;;;3.53;2.17;;;4.50;99.90;;;3.01;81.89;102237.69;4943350;28;20403;-76
2023/05/31 02:48:05;;;;;;;5.05;1.85;;;4.50;99.90;;;2.99;82.21;102236.81;4963124;28;20043;-78
2023/05/31 02:50:32;;;;;;;5.55;1.83;;;4.40;99.90;;;2.99;82.07;102234.22;4954951;28;20065;-76
2023/05/31 02:53:05;;;;;;;11.15;3.28;;;4.40;99.90;;;3.02;82.15;102241.16;4948849;28;20456;-75
2023/05/31 02:55:32;;;;;;;7.85;3.25;;;4.40;99.90;;;3.07;82.76;102244.69;4963190;28;20027;-77
2023/05/31 02:57:58;;;;;;;4.85;2.47;;;4.50;99.90;;;3.11;83.48;102240.38;4997098;23;20068;-77
2023/05/31 03:00:25;;;;;;;4.00;2.30;;;4.50;99.90;;;3.14;83.57;102243.88;5019492;28;20566;-76
2023/05/31 03:02:52;;;;;;;4.63;2.45;;;4.50;99.90;;;3.16;83.54;102242.16;5012509;28;20034;-75
2023/05/31 03:05:18;;;;;;;5.05;2.45;;;4.50;99.90;;;3.19;83.22;102241.31;5002842;28;20334;-75
2023/05/31 03:07:43;;;;;;;3.40;1.90;;;4.50;99.90;;;3.17;83.09;102243.91;4990546;28;20066;-76
2023/05/31 03:10:10;;;;;;;9.52;2.53;;;4.50;99.90;;;3.18;82.47;102239.59;4981447;28;20069;-79
2023/05/31 03:12:36;;;;;;;4.55;2.55;;;4.50;99.90;;;3.22;83.01;102242.22;4995217;28;20113;-76
2023/05/31 03:15:03;;;;;;;13.55;4.35;;;4.50;99.90;;;3.24;83.53;102239.59;4996381;28;20041;-77
2023/05/31 03:17:29;;;;;;;11.25;4.60;;;4.60;99.90;;;3.28;83.75;102244.88;5022531;28;20033;-76
2023/05/31 03:19:55;;;;;;;11.95;4.70;;;4.60;99.90;;;3.35;84.37;102248.41;4977063;28;20037;-76
2023/05/31 03:22:22;;;;;;;9.77;4.13;;;4.70;99.90;;;3.43;85.09;102241.50;4994382;28;20026;-76
2023/05/31 03:24:49;;;;;;;8.05;3.50;;;4.70;99.90;;;3.48;85.43;102232.00;4992762;28;20049;-75
2023/05/31 03:27:16;;;;;;;12.13;3.42;;;4.70;99.90;;;3.51;85.50;102243.31;4984720;28;20074;-76
2023/05/31 03:29:43;;;;;;;12.32;5.28;;;4.80;99.90;;;3.57;85.39;102246.81;4967869;28;20048;-76
2023/05/31 03:32:09;;;;;;;13.95;4.80;;;4.80;99.90;;;3.64;85.84;102245.97;4983470;28;20054;-76
2023/05/31 03:34:38;;;;;;;9.02;3.63;;;4.90;99.90;;;3.73;86.44;102249.50;5004308;28;20034;-76
2023/05/31 03:37:04;;;;;;;14.80;5.72;;;5.00;99.90;;;3.80;86.28;102253.88;4980682;28;20121;-76
2023/05/31 03:39:30;;;;;;;12.48;4.75;;;5.10;99.90;;;3.99;87.54;102260.09;4995128;28;20042;-75
2023/05/31 03:41:56;;;;;;;13.38;4.22;;;6.50;99.90;;;5.51;88.70;102271.72;4992450;28;20048;-76
2023/05/31 03:44:25;;;;;;;8.95;4.18;;;8.60;99.90;;;7.84;87.48;102289.69;4988073;28;20418;-76
2023/05/31 03:46:50;;;;;;;10.15;3.47;;;10.60;99.90;;;9.94;81.58;102304.19;4998146;28;20034;-76
2023/05/31 03:49:16;;;;;;;8.68;3.10;;;12.40;99.90;;;11.95;72.91;102308.47;4994535;28;20037;-76
2023/05/31 03:51:42;;;;;;;6.18;2.47;;;14.10;99.90;;;13.61;64.62;102308.72;4994655;28;20080;-76
2023/05/31 03:54:08;;;;;;;9.38;2.30;;;15.50;99.90;;;15.09;59.01;102317.38;4991763;28;20490;-76
2023/05/31 03:56:34;;;;;;;5.70;2.20;;;16.70;99.90;;;16.44;54.93;102322.22;4995728;28;20030;-78
2023/05/31 03:59:00;;;;;;;8.43;2.67;;;17.80;98.90;;;17.60;52.34;102326.41;4996621;28;20036;-76
2023/05/31 04:01:26;;;;;;;8.63;2.42;;;18.90;97.10;;;18.70;49.61;102339.28;4985535;28;20034;-76
2023/05/31 04:03:52;;;;;;;12.82;2.72;;;19.90;95.80;;;19.77;47.41;102346.53;4995090;28;20120;-77
2023/05/31 04:06:18;;;;;;;8.32;2.33;;;20.80;94.40;;;20.79;45.61;102345.63;4994662;28;20056;-77
2023/05/31 04:08:44;;;;;;;7.05;2.40;;;21.60;93.00;;;21.55;43.94;102346.94;5008062;28;21193;-77
2023/05/31 04:11:10;;;;;;;12.30;2.92;;;21.90;91.90;;;21.84;43.27;102348.50;5005882;28;20037;-77
2023/05/31 04:13:36;;;;;;;9.27;2.83;;;22.20;91.90;;;22.05;42.77;102350.63;4982722;28;20031;-76
2023/05/31 04:16:02;;;;;;;5.75;2.40;;;22.10;91.30;;;21.84;42.53;102340.44;4991068;28;22375;-77
2023/05/31 04:18:28;;;;;;;10.57;2.40;;;22.30;90.50;;;22.06;42.01;102355.06;4982139;28;20034;-75
2023/05/31 04:20:54;;;;;;;9.25;2.70;;;22.50;90.10;;;22.21;41.60;102359.34;4995222;28;20056;-76
2023/05/31 04:23:20;;;;;;;;;;;22.50;90.30;;;23.33;40.76;102378.13;4995949;28;20030;-75
2023/05/31 04:25:47;;;;;;;4.28;2.42;;;23.60;89.20;;;24.39;38.50;102388.00;5016760;28;20358;-74
2023/05/31 04:28:15;;;;;;;10.43;2.40;;;24.30;87.10;;;25.40;37.45;102403.22;4983676;28;20534;-75
2023/05/31 04:30:41;;;;;;;6.88;2.38;;;24.90;85.50;;;26.23;36.11;102406.97;4999121;28;20034;-76
2023/05/31 04:33:07;;;;;;;4.32;2.35;;;25.60;85.20;;;26.75;35.61;102410.50;4995780;28;20038;-75
2023/05/31 04:35:33;;;;;;;7.53;3.00;;;25.90;84.10;;;26.77;35.55;102404.97;4997298;28;20502;-75
2023/05/31 04:38:02;;;;;;;5.93;2.40;;;26.10;84.30;;;27.04;35.25;102398.06;4974993;28;20034;-75
2023/05/31 04:40:32;;;;;;;6.70;2.97;;;26.40;82.50;;;27.88;34.20;102413.81;4990229;28;20048;-74
2023/05/31 04:43:02;;;;;;;5.97;3.00;;;26.80;82.10;;;28.33;33.52;102411.28;4985252;28;20212;-75
2023/05/31 04:45:28;;;;;;;5.57;2.80;;;27.00;81.60;;;28.42;33.31;102418.53;5017430;28;20042;-74
2023/05/31 04:47:55;;;;;;;7.55;3.10;;;27.20;82.10;;;28.50;33.44;102416.97;5010461;28;20384;-75
2023/05/31 04:50:21;;;;;;;9.20;2.88;;;27.30;81.40;;;28.36;32.82;102413.72;4991171;28;20045;-75
2023/05/31 04:52:46;;;;;;;6.95;2.70;;;27.20;80.70;;;28.22;33.12;102412.31;4990143;28;20541;-74
2023/05/31 04:55:12;;;;;;;15.48;3.13;;;27.10;81.20;;;28.73;33.03;102421.00;4993868;28;20379;-75
2023/05/31 04:57:38;;;;;;;10.65;3.22;;;27.20;81.30;;;28.94;32.96;102428.91;4986301;28;20710;-74
2023/05/31 05:00:08;;;;;;;;;;;27.20;81.40;;;29.71;32.58;102437.53;4988760;28;20041;-75
2023/05/31 05:02:34;;;;;;;7.50;3.15;;;27.80;81.40;;;30.25;31.70;102453.72;5004465;28;20361;-74
2023/05/31 05:05:00;;;;;;;5.20;2.78;;;28.00;80.50;;;29.28;32.20;102432.84;4974318;28;20044;-75
2023/05/31 05:07:26;;;;;;;;;;;27.90;80.80;;;29.84;32.28;102445.28;4987324;28;20080;-75
2023/05/31 05:09:52;;;;;;;9.68;2.90;;;28.30;81.10;;;31.06;31.15;102460.66;4992992;28;19922;-75
2023/05/31 05:12:17;;;;;;;;;;;28.30;80.60;;;31.75;31.01;102469.47;4992134;28;20622;-77
2023/05/31 05:14:43;;;;;;;5.43;2.50;;;29.20;79.70;;;31.38;30.52;102472.63;5025069;28;20336;-76
2023/05/31 05:17:09;;;;;;;11.90;5.28;;;29.20;79.20;;;31.66;30.40;102475.91;4983243;28;20782;-74
2023/05/31 05:19:35;;;;;;;20.58;8.93;;;29.50;78.20;;;31.41;30.12;102472.31;4981877;28;20058;-75
2023/05/31 05:22:00;;;;;;;;;;;29.50;78.30;;;32.13;30.36;102479.88;4994097;28;20030;-74
2023/05/31 05:24:26;;;;;;;16.80;8.02;;;29.90;77.40;;;32.25;29.57;102483.97;4991763;28;20324;-74
2023/05/31 05:26:52;;;;;;;10.13;4.60;;;29.60;76.90;;;30.33;30.94;102450.25;4990951;28;20105;-75
2023/05/31 05:29:18;;;;;;;19.00;3.35;;;28.90;77.40;;;29.38;32.27;102442.63;4984120;28;20115;-75
2023/05/31 05:31:44;;;;;;;;;;;28.80;78.60;;;28.93;33.22;102429.03;4997274;28;20077;-75
2023/05/31 05:34:10;;;;;;;9.18;2.97;;;27.70;79.70;;;28.84;33.48;102433.50;5005156;28;19924;-76
2023/05/31 05:36:36;;;;;;;;;;;27.60;80.50;;;29.60;32.80;102441.28;5010092;28;20755;-74
2023/05/31 05:39:08;;;;;;;8.88;3.20;;;28.00;80.70;;;31.07;31.12;102459.63;4993382;28;19917;-75
2023/05/31 05:41:34;;;;;;;9.63;3.22;;;28.60;79.60;;;31.86;30.25;102469.13;4972734;28;20034;-76
2023/05/31 05:44:00;;;;;;;5.18;2.97;;;29.40;79.00;;;32.33;29.28;102475.75;4986987;28;20045;-76
2023/05/31 05:46:26;;;;;;;9.05;3.22;;;30.10;78.40;;;33.10;28.79;102472.47;4993460;28;20084;-76
2023/05/31 05:48:52;;;;;;;20.58;11.43;;;30.60;76.70;;;32.95;28.74;102469.59;4992113;28;20760;-75
2023/05/31 05:51:17;;;;;;;18.00;9.52;;;30.70;75.50;;;32.14;29.53;102459.75;4989521;28;20050;-75
2023/05/31 05:53:43;;;;;;;12.50;4.28;;;30.80;75.60;;;33.17;29.08;102458.94;4998542;28;20391;-77
2023/05/31 05:56:18;;;;;;;8.95;3.30;;;31.40;75.70;;;34.60;27.64;102474.66;4995342;28;20081;-75
2023/05/31 05:58:47;;;;;;;9.52;3.20;;;32.30;74.40;;;35.15;26.74;102467.84;4991253;28;20107;-74
2023/05/31 06:01:18;;;;;;;9.38;2.97;;;33.00;73.50;;;35.79;26.13;102472.53;4991382;28;20400;-75
2023/05/31 06:03:47;;;;;;;5.32;3.25;;;33.60;71.50;;;36.25;25.52;102465.72;4991143;28;20522;-75
2023/05/31 06:06:13;;;;;;;8.25;3.05;;;34.10;71.90;;;36.25;25.93;102477.53;5023336;28;20037;-75
2023/05/31 06:08:39;;;;;;;7.28;3.10;;;34.40;71.30;;;36.04;26.22;102467.44;4995768;28;20029;-75
2023/05/31 06:11:05;;;;;;;8.88;3.08;;;34.60;70.30;;;36.79;25.34;102472.41;4991261;28;20044;-76
2023/05/31 06:13:31;;;;;;;7.45;3.13;;;35.10;68.20;;;37.61;24.56;102473.31;4982926;28;20041;-75
2023/05/31 06:15:57;;;;;;;6.28;2.97;;;35.80;68.10;;;38.23;23.93;102471.16;4989414;28;20103;-75
2023/05/31 06:18:23;;;;;;;7.75;3.08;;;36.30;66.60;;;38.30;23.92;102478.34;4990211;28;20058;-77
2023/05/31 06:20:49;;;;;;;4.18;2.63;;;36.20;64.70;;;36.91;24.30;102448.78;4994311;28;20038;-75
2023/05/31 06:23:15;;;;;;;4.18;2.42;;;36.00;65.50;;;36.49;25.26;102440.56;4991834;28;20116;-74
2023/05/31 06:25:41;;;;;;;5.75;2.40;;;35.50;63.70;;;35.98;24.98;102440.81;4991973;28;20121;-75
2023/05/31 06:28:07;;;;;;;6.82;2.80;;;35.30;64.30;;;36.10;24.96;102430.16;4974289;28;20125;-74
2023/05/31 06:30:33;;;;;;;4.78;2.58;;;35.40;64.40;;;36.74;24.71;102440.09;4987522;28;20505;-74
2023/05/31 06:32:59;;;;;;;4.55;2.45;;;35.70;64.10;;;37.46;23.86;102443.25;4994033;28;20034;-77
2023/05/31 06:35:24;;;;;;;5.32;3.20;;;36.20;63.80;;;38.04;23.33;102450.91;4993785;28;20041;-74
2023/05/31 06:37:53;;;;;;;7.35;4.03;;;36.80;63.10;;;38.26;23.11;102443.25;4991123;28;20509;-75
2023/05/31 06:40:19;;;;;;;9.27;2.25;;;37.20;62.10;;;38.64;22.49;102448.88;4979211;28;20505;-75
2023/05/31 06:42:45;;;;;;;5.20;2.95;;;37.40;59.70;;;38.60;22.26;102449.50;4970843;28;20133;-74
2023/05/31 06:45:11;;;;;;;7.50;2.60;;;37.50;59.50;;;38.46;22.51;102460.53;4993405;28;20042;-74
2023/05/31 06:47:37;;;;;;;5.20;2.63;;;37.60;59.00;;;38.50;22.36;102456.31;5000487;28;20429;-74
2023/05/31 06:50:03;;;;;;;9.32;4.80;;;37.80;59.80;;;38.77;21.89;102457.06;4982599;28;20120;-74
2023/05/31 06:52:29;;;;;;;6.18;4.00;;;38.10;58.80;;;39.31;21.62;102457.66;4987194;28;20494;-74
2023/05/31 06:54:55;;;;;;;4.55;2.47;;;38.50;59.10;;;39.77;21.39;102442.66;4992464;28;20092;-75
2023/05/31 06:57:21;;;;;;;5.65;2.22;;;38.70;56.50;;;39.62;21.38;102442.19;4992825;28;20069;-75
2023/05/31 06:59:47;;;;;;;6.05;2.13;;;38.80;56.60;;;39.04;21.15;102428.59;4994639;28;20684;-75
2023/05/31 07:02:13;;;;;;;5.15;1.95;;;38.60;55.80;;;38.47;21.01;102434.72;4981917;28;20129;-75
2023/05/31 07:04:38;;;;;;;3.15;1.85;;;38.00;55.70;;;37.52;22.03;102420.44;4979771;28;20052;-75
2023/05/31 07:07:05;;;;;;;5.50;1.92;;;37.30;55.70;;;36.14;22.07;102404.91;4975985;28;20083;-74
2023/05/31 07:09:30;;;;;;;3.88;1.92;;;36.10;55.00;;;35.13;22.63;102396.84;4975643;28;20049;-76
2023/05/31 07:11:56;;;;;;;4.55;2.20;;;35.50;56.80;;;35.15;23.19;102388.44;4982212;28;20107;-75
2023/05/31 07:14:23;;;;;;;4.85;2.03;;;35.20;57.50;;;35.47;23.45;102391.72;4988915;28;20038;-74
2023/05/31 07:16:49;;;;;;;4.65;2.08;;;35.30;57.20;;;35.64;22.66;102389.53;4989598;28;20039;-74
2023/05/31 07:19:15;;;;;;;6.13;2.00;;;35.40;57.20;;;35.50;23.19;102380.34;4985747;28;20453;-74
2023/05/31 07:21:40;;;;;;;2.60;1.48;;;35.30;57.20;;;35.12;23.52;102369.66;5011797;28;20049;-74
2023/05/31 07:24:06;;;;;;;5.90;2.20;;;35.20;57.10;;;35.39;23.42;102364.47;4999831;28;20034;-73
2023/05/31 07:26:32;;;;;;;3.92;2.05;;;35.30;57.20;;;36.04;22.41;102379.72;4988900;28;20042;-74
2023/05/31 07:28:58;;;;;;;4.78;2.00;;;35.50;55.90;;;35.62;22.48;102358.75;4989416;28;20050;-73
2023/05/31 07:31:24;;;;;;;3.83;1.90;;;35.40;55.90;;;35.38;22.76;102358.13;4991329;28;20030;-76
2023/05/31 07:33:50;;;;;;;5.93;2.22;;;35.30;56.30;;;35.59;22.36;102356.41;4998717;28;20077;-74
2023/05/31 07:36:16;;;;;;;6.03;1.92;;;35.30;53.50;;;35.78;21.76;102363.13;4992453;28;20065;-75
2023/05/31 07:38:41;;;;;;;4.10;2.10;;;35.40;54.60;;;35.80;21.88;102355.53;4972923;28;20031;-75
2023/05/31 07:41:07;;;;;;;4.60;2.03;;;35.50;54.80;;;36.06;21.49;102354.84;4983342;28;20034;-74
2023/05/31 07:43:34;;;;;;;7.78;2.65;;;35.70;54.50;;;36.24;21.18;102346.13;4992837;28;20038;-74
2023/05/31 07:46:00;;;;;;;5.82;1.60;;;35.80;53.70;;;36.30;20.64;102343.41;4998828;28;20520;-75
2023/05/31 07:48:28;;;;;;;4.10;1.70;;;35.80;53.00;;;36.04;20.71;102340.50;4983942;28;20030;-75
2023/05/31 07:50:54;;;;;;;4.00;1.90;;;35.70;53.00;;;35.65;21.14;102337.31;4994010;28;20038;-75
2023/05/31 07:53:20;;;;;;;3.38;1.42;;;35.30;53.00;;;35.10;21.05;102333.44;4980518;28;20181;-75
2023/05/31 07:55:46;;;;;;;3.60;1.58;;;35.00;53.50;;;34.82;21.52;102323.25;4996696;28;20388;-75
2023/05/31 07:58:12;;;;;;;3.08;1.65;;;34.50;53.50;;;34.07;22.53;102311.53;4994757;28;20034;-75
2023/05/31 08:00:39;;;;;;;3.25;1.58;;;33.90;53.80;;;33.24;23.01;102299.75;5006515;28;20041;-73
2023/05/31 08:03:05;;;;;;;5.90;1.40;;;33.30;53.40;;;32.86;22.50;102286.03;4992994;28;21486;-74
2023/05/31 08:05:32;;;;;;;4.20;1.52;;;32.80;54.30;;;32.18;23.09;102278.56;4974564;28;20494;-74
2023/05/31 08:07:59;;;;;;;4.45;1.70;;;32.30;54.50;;;31.95;23.91;102256.66;5008231;28;20030;-76
2023/05/31 08:10:25;;;;;;;4.63;1.42;;;32.00;55.10;;;31.90;23.96;102265.34;4969979;28;20041;-75
2023/05/31 08:12:51;;;;;;;3.95;1.60;;;31.80;55.40;;;31.60;24.22;102254.22;4991786;28;20034;-74
2023/05/31 08:15:17;;;;;;;5.50;1.70;;;31.40;56.50;;;30.91;25.17;102242.00;4999771;28;20524;-75
2023/05/31 08:17:43;;;;;;;5.00;1.70;;;31.00;56.90;;;30.52;25.40;102234.44;4990131;28;20100;-74
2023/05/31 08:20:15;;;;;;;3.65;1.63;;;30.60;56.80;;;30.12;25.38;102227.84;4995231;28;20038;-76
2023/05/31 08:22:44;;;;;;;5.90;1.45;;;30.30;57.30;;;30.09;25.58;102228.16;4998832;28;20037;-75
2023/05/31 08:25:16;;;;;;;3.13;1.60;;;30.00;57.00;;;29.89;25.36;102223.00;4995103;28;20038;-74
2023/05/31 08:27:42;;;;;;;4.07;1.55;;;29.90;55.70;;;29.95;24.74;102222.34;4989209;28;20085;-74
2023/05/31 08:30:10;;;;;;;2.53;1.58;;;29.80;55.70;;;29.98;25.20;102222.03;4993506;28;20042;-74
2023/05/31 08:32:37;;;;;;;2.72;1.60;;;29.80;56.20;;;29.55;25.54;102203.97;4995624;28;20042;-74
2023/05/31 08:35:06;;;;;;;5.32;1.60;;;29.70;57.10;;;29.50;25.90;102209.00;4988390;28;20122;-75
2023/05/31 08:37:34;;;;;;;2.92;1.45;;;29.50;57.10;;;29.31;26.20;102207.38;5011014;28;20410;-74
2023/05/31 08:40:00;;;;;;;5.72;2.10;;;29.50;55.90;;;29.05;25.88;102208.19;4984038;28;20045;-75
2023/05/31 08:42:36;;;;;;;6.10;1.60;;;29.30;56.80;;;28.88;26.23;102196.34;4986177;28;20569;-75
2023/05/31 08:45:02;;;;;;;3.97;1.40;;;29.20;55.10;;;28.54;25.28;102194.34;4997156;28;20038;-74
2023/05/31 08:47:43;;;;;;;3.72;1.42;;;29.00;55.50;;;28.40;25.79;102190.28;4979353;28;20129;-74
2023/05/31 08:50:10;;;;;;;4.22;1.40;;;28.80;56.60;;;28.39;26.25;102188.56;4987550;28;20087;-74
2023/05/31 08:52:37;;;;;;;12.18;1.75;;;28.80;56.80;;;28.37;26.13;102182.44;4987399;28;20035;-73
2023/05/31 08:55:04;;;;;;;5.25;1.50;;;28.80;57.50;;;28.21;26.70;102171.47;4994414;28;20050;-74
2023/05/31 08:57:31;;;;;;;4.68;1.45;;;28.60;57.10;;;28.08;26.81;102173.66;4994503;28;20040;-74
2023/05/31 08:59:59;;;;;;;6.15;1.55;;;28.50;58.10;;;28.07;27.75;102167.41;4969130;28;20039;-74
2023/05/31 09:02:25;;;;;;;6.15;1.60;;;28.30;57.40;;;27.87;26.50;102168.53;4995877;28;20042;-75
2023/05/31 09:04:52;;;;;;;5.78;1.20;;;28.30;57.10;;;27.88;27.58;102164.81;4992882;28;22118;-74
2023/05/31 09:07:23;;;;;;;5.30;1.40;;;28.20;55.80;;;27.78;26.26;102171.09;4996891;28;20422;-73
2023/05/31 09:09:49;;;;;;;7.30;1.15;;;28.00;56.70;;;27.51;27.12;102161.06;4986405;28;20037;-74
2023/05/31 09:12:15;;;;;;;5.35;1.27;;;27.70;55.90;;;26.86;27.40;102152.81;4982727;28;20030;-74
2023/05/31 09:14:47;;;;;;;6.53;1.45;;;27.40;58.70;;;26.83;28.30;102141.47;5007789;28;20114;-75
2023/05/31 09:17:13;;;;;;;3.95;1.50;;;27.30;57.90;;;26.74;27.85;102137.78;4977671;28;20082;-74
2023/05/31 09:19:54;;;;;;;2.58;1.40;;;27.10;59.20;;;26.49;28.73;102129.19;4996346;28;20034;-76
2023/05/31 09:22:26;;;;;;;3.35;1.20;;;27.00;59.30;;;26.45;28.83;102121.53;5010244;28;20076;-75
2023/05/31 09:24:57;;;;;;;5.63;1.45;;;27.00;58.60;;;26.50;27.60;102132.75;4991670;28;20030;-74
2023/05/31 09:27:25;;;;;;;5.95;1.42;;;26.90;58.40;;;26.63;27.72;102132.50;4991188;28;20034;-74
2023/05/31 09:30:00;;;;;;;3.90;1.40;;;27.00;59.10;;;26.80;28.10;102132.66;4977455;28;20518;-76
2023/05/31 09:32:26;;;;;;;3.08;1.52;;;27.10;58.20;;;26.86;27.44;102128.50;4994166;28;20044;-74
2023/05/31 09:35:23;;;;;;;6.18;1.67;;;27.30;58.30;;;27.08;27.43;102123.75;4991842;28;20042;-75
2023/05/31 09:37:49;;;;;;;;;;;27.30;58.80;;;27.15;28.19;102125.75;4984891;28;20057;-74
2023/05/31 09:40:26;;;;;;;2.93;1.27;;;27.30;57.10;;;26.77;26.55;102127.50;5016674;28;20000;-74
2023/05/31 09:42:55;;;;;;;2.50;1.30;;;27.00;54.90;;;26.13;26.73;102128.03;5006721;28;20824;-77
2023/05/31 09:45:24;;;;;;;2.67;1.20;;;26.80;57.50;;;26.31;27.68;102112.84;4995906;28;20053;-75
2023/05/31 09:47:51;;;;;;;1.42;1.20;;;26.80;59.80;;;26.45;29.07;102122.38;4990449;28;20042;-74
2023/05/31 09:50:19;;;;;;;5.93;1.67;;;26.80;58.40;;;26.57;28.63;102115.88;4990502;28;20038;-75
2023/05/31 09:52:48;;;;;;;2.03;1.30;;;27.00;60.00;;;26.79;28.73;102113.88;4992612;28;20051;-74
2023/05/31 09:55:18;;;;;;;2.67;1.52;;;27.20;56.90;;;27.09;26.94;102120.91;4994979;28;20093;-75
2023/05/31 09:57:45;;;;;;;2.85;1.60;;;27.40;58.80;;;27.38;27.25;102120.00;4978001;28;20121;-74
2023/05/31 10:00:16;;;;;;;4.03;1.10;;;27.70;57.10;;;27.53;26.80;102123.91;5005690;28;20049;-74
2023/05/31 10:02:54;;;;;;;5.50;1.58;;;27.90;56.30;;;27.74;26.00;102130.94;4983102;28;20041;-75
2023/05/31 10:05:21;;;;;;;3.15;1.40;;;28.00;57.80;;;27.88;27.03;102127.75;4984287;28;20033;-75
2023/05/31 10:07:50;;;;;;;3.88;1.40;;;28.20;58.50;;;28.12;26.66;102129.03;4993373;28;20042;-75
2023/05/31 10:10:22;;;;;;;2.25;1.10;;;28.30;56.00;;;28.14;26.00;102127.91;4991810;28;20045;-75
2023/05/31 10:12:53;;;;;;;3.22;1.60;;;28.30;56.90;;;27.98;26.43;102128.56;5020073;28;20119;-76
2023/05/31 10:15:26;;;;;;;3.58;1.33;;;28.20;55.80;;;27.79;25.82;102124.06;4985205;28;20068;-75
2023/05/31 10:18:21;;;;;;;6.55;1.35;;;28.00;56.50;;;27.53;26.58;102117.66;5009951;28;20081;-76
2023/05/31 10:21:05;;;;;;;2.70;1.38;;;27.70;55.40;;;27.20;26.56;102107.22;4994287;28;20511;-77